Rayong, Thailand

08:17 PM ICT on Augusti 27, 2016 (GMT +0700)
Mae Rumphueng Beach (750m Inland) | | Change Station

Elev 43 ft 12.62 °N, 101.39 °E | Updated 18 seconds ago

Partly Cloudy
Växlande molnighet
84.2 °F
Feels Like 96 °F
N
2.5
Vind Växlande Vind from S/SV
Gusts 4.9 miles/tim

Idag
High -- | Low -- °F
--% Chance of Precip.
Yesterday
High -- | Low -- °F
Precip. -- tum
Lufttryck 29.77 tum
Sikt 5.6 miles
Molnigt Few 2000 ft
Värmeindex 96 °F
Daggpunkt 78 °F
Luftfuktighet 83%
Rainfall 0.00 tum
Snow Depth Not available.
6:03 AM 6:28 PM
Fjärde kvarteret, 24% visible
METAR VTBU 271300Z 20009KT 9000 FEW020 29/24 Q1008 NOSIG
Lufttryck 29.77 tum
Sikt 5.6 miles
Molnigt Few 2000 ft
Värmeindex 96 °F
Daggpunkt 78 °F
Luftfuktighet 83%
Rainfall 0.00 tum
Snow Depth Not available.
6:03 AM 6:28 PM
Fjärde kvarteret, 24% visible
METAR VTBU 271300Z 20009KT 9000 FEW020 29/24 Q1008 NOSIG

10-Day Weather Forecast

No radar image for this location.
×

Almanac

Astronomi

Aug. 27, 2016 Rise Set
Actual Time
Civil Twilight
Nautical Twilight
Astronomical Twilight
Månen
Length Of Visible Light
Dagens längd
Tomorrow will be .
, % of the Moon is Illuminated

Today's Extremes

Country Highs Country Lows

Community

WunderPhotos

Upload Photos

1,935,337 photos uploaded!

WunderBlog® & News

Nearby

Air Quality

  Air Quality AQ Index Pollutant
Not available.

Snödjup

Station Depth Elevation

Earthquake Activity

Stad Distance Mag. Time & Date
Minimum magnitude displayed is 2.5.

Coastal Water Temperatures

Plats Temperatur

Stations

Nearby Weather Stations

Station Location Temp Vindavkylning Daggpunkt Luftfuktighet Vind Precip. Elev Uppdaterad Type